Time;durP1;ratioP1;P1;durP2;ratioP2;P2;SDS_P1;SDS_P2;PMS_P1;PMS_P2;Temp;Humidity;BMP_temperature;BMP_pressure;BME280_temperature;BME280_humidity;BME280_pressure;Samples;Min_cycle;Max_cycle;Signal;HPM_P1;HPM_P2
2022/01/14 00:01:38;;;;;;;11.85;6.03;;;5.80;99.90;;;;;;5052449;28;20099;-87
2022/01/14 00:04:05;;;;;;;13.52;7.38;;;6.20;99.90;;;;;;5050247;28;20512;-85
2022/01/14 00:06:31;;;;;;;12.98;5.28;;;5.90;99.90;;;;;;5038569;28;20528;-87
2022/01/14 00:09:05;;;;;;;13.88;6.20;;;6.60;99.90;;;;;;5056224;28;20079;-87
2022/01/14 00:11:32;;;;;;;10.77;6.03;;;6.10;99.90;;;;;;5056694;28;20045;-87
2022/01/14 00:16:29;;;;;;;10.68;5.57;;;5.80;99.90;;;;;;5054952;28;20103;-87
2022/01/14 00:18:57;;;;;;;11.88;4.20;;;6.80;99.90;;;;;;5038489;28;20489;-87
2022/01/14 00:21:23;;;;;;;11.13;5.80;;;6.20;99.90;;;;;;5056315;28;20033;-87
2022/01/14 00:23:52;;;;;;;10.95;5.80;;;5.80;99.90;;;;;;5056562;28;20569;-86
2022/01/14 00:31:53;;;;;;;12.80;5.22;;;6.50;99.90;;;;;;5036240;28;20047;-86
2022/01/14 00:34:19;;;;;;;14.98;7.32;;;6.00;99.90;;;;;;5037317;28;20132;-85
2022/01/14 00:36:45;;;;;;;13.57;6.22;;;6.60;99.90;;;;;;5036298;28;20136;-85
2022/01/14 00:39:12;;;;;;;10.27;4.93;;;5.80;99.90;;;;;;5036818;28;20045;-86
2022/01/14 00:41:39;;;;;;;9.07;5.05;;;6.00;99.90;;;;;;5037358;28;20056;-86
2022/01/14 00:44:10;;;;;;;8.80;4.53;;;6.20;99.90;;;;;;5049359;28;20041;-82
2022/01/14 00:46:41;;;;;;;13.65;5.40;;;5.80;99.90;;;;;;5038184;28;20401;-88
2022/01/14 00:49:07;;;;;;;8.80;4.47;;;6.00;99.90;;;;;;5056013;28;20049;-87
2022/01/14 00:51:35;;;;;;;12.85;5.80;;;5.70;99.90;;;;;;5029083;28;20094;-86
2022/01/14 00:54:00;;;;;;;13.30;5.78;;;6.20;99.90;;;;;;5035874;28;20045;-85
2022/01/14 00:59:16;;;;;;;10.80;5.30;;;6.60;99.90;;;;;;5050185;28;20132;-87
2022/01/14 01:01:48;;;;;;;9.95;5.20;;;6.00;99.90;;;;;;5035357;28;20834;-85
2022/01/14 01:04:16;;;;;;;13.38;5.10;;;5.80;99.90;;;;;;5055546;28;20056;-85
2022/01/14 01:06:43;;;;;;;11.48;4.85;;;5.80;99.90;;;;;;5055575;28;20040;-86
2022/01/14 01:09:11;;;;;;;10.35;4.80;;;5.70;99.90;;;;;;5055312;28;20061;-86
2022/01/14 01:11:49;;;;;;;7.07;3.63;;;5.70;99.90;;;;;;5053764;28;20052;-84
2022/01/14 01:14:32;;;;;;;6.45;3.53;;;6.30;99.90;;;;;;5053855;28;20049;-85
2022/01/14 01:16:58;;;;;;;8.65;4.32;;;6.30;99.90;;;;;;5036359;28;20110;-86
2022/01/14 01:19:24;;;;;;;12.30;4.95;;;5.70;99.90;;;;;;5055348;28;20116;-87
2022/01/14 01:21:49;;;;;;;10.88;5.22;;;5.70;99.90;;;;;;5055842;28;20146;-86
2022/01/14 01:24:16;;;;;;;13.45;4.78;;;5.70;99.90;;;;;;5053454;28;20033;-86
2022/01/14 01:26:43;;;;;;;10.55;6.10;;;5.80;99.90;;;;;;5035514;28;20394;-87
2022/01/14 01:31:40;;;;;;;14.40;5.97;;;6.10;99.90;;;;;;5035380;28;20494;-86
2022/01/14 01:34:12;;;;;;;12.90;5.55;;;6.30;99.90;;;;;;5045921;28;20037;-87
2022/01/14 01:36:40;;;;;;;11.00;5.28;;;6.30;99.90;;;;;;5054805;28;20037;-88
2022/01/14 01:39:08;;;;;;;10.57;3.85;;;6.40;99.90;;;;;;5020040;28;20053;-86
2022/01/14 01:41:36;;;;;;;8.15;3.65;;;5.70;99.90;;;;;;5055081;28;20041;-86
2022/01/14 01:44:06;;;;;;;9.43;4.65;;;5.70;99.90;;;;;;5035121;28;20083;-88
2022/01/14 01:46:33;;;;;;;13.38;5.47;;;5.60;99.90;;;;;;5054662;28;20056;-84
2022/01/14 01:48:59;;;;;;;13.90;5.68;;;5.60;99.90;;;;;;5054800;28;20091;-87
2022/01/14 01:51:24;;;;;;;9.40;4.93;;;6.40;99.90;;;;;;5054652;28;20045;-85
2022/01/14 01:53:50;;;;;;;10.13;4.30;;;6.10;99.90;;;;;;5036416;28;20049;-85
2022/01/14 01:56:17;;;;;;;10.75;5.68;;;6.10;99.90;;;;;;5036208;28;20068;-87
2022/01/14 01:58:43;;;;;;;13.73;6.00;;;6.40;99.90;;;;;;5040687;28;20397;-87
2022/01/14 02:01:09;;;;;;;9.43;5.07;;;6.40;99.90;;;;;;5054628;28;20033;-87
2022/01/14 02:03:36;;;;;;;9.20;3.95;;;6.00;99.90;;;;;;5036665;28;20055;-85
2022/01/14 02:06:03;;;;;;;9.07;3.45;;;5.90;99.90;;;;;;5045213;28;20051;-87
2022/01/14 02:08:29;;;;;;;11.32;4.32;;;6.60;99.90;;;;;;5034294;28;20439;-87
2022/01/14 02:10:55;;;;;;;9.88;4.55;;;5.60;99.90;;;;;;5016616;28;20119;-87
2022/01/14 02:13:20;;;;;;;15.45;5.47;;;5.60;99.90;;;;;;5038798;28;20084;-87
2022/01/14 02:16:11;;;;;;;10.77;4.70;;;5.60;99.90;;;;;;5052693;28;20469;-87
2022/01/14 02:24:06;;;;;;;13.93;6.25;;;6.20;99.90;;;;;;5053987;28;20497;-87
2022/01/14 02:26:32;;;;;;;18.08;7.20;;;5.60;99.90;;;;;;5052328;28;20037;-88
2022/01/14 02:28:58;;;;;;;13.73;6.68;;;5.80;99.90;;;;;;5035969;28;20044;-85
2022/01/14 02:31:23;;;;;;;14.85;6.03;;;5.90;99.90;;;;;;5054099;28;20041;-86
2022/01/14 02:33:49;;;;;;;13.65;6.32;;;5.70;99.90;;;;;;5053574;28;20557;-85
2022/01/14 02:36:15;;;;;;;19.30;6.60;;;5.70;99.90;;;;;;5038597;28;20116;-88
2022/01/14 02:38:41;;;;;;;10.00;5.63;;;6.30;99.90;;;;;;5034849;28;20045;-83
2022/01/14 02:41:07;;;;;;;10.73;4.88;;;6.00;99.90;;;;;;5033954;28;20029;-86
2022/01/14 02:43:34;;;;;;;10.63;4.38;;;5.70;99.90;;;;;;5034829;28;20045;-86
2022/01/14 02:46:00;;;;;;;12.07;5.57;;;5.70;99.90;;;;;;5017280;28;20128;-86
2022/01/14 02:48:27;;;;;;;9.02;4.90;;;6.50;99.90;;;;;;5034651;28;20457;-88
2022/01/14 02:51:11;;;;;;;18.20;8.40;;;5.70;99.90;;;;;;5033633;28;20047;-86
2022/01/14 02:56:18;;;;;;;13.55;5.72;;;5.80;99.90;;;;;;5017485;28;20389;-87
2022/01/14 02:58:44;;;;;;;18.75;6.18;;;5.80;99.90;;;;;;5034421;28;20037;-87
2022/01/14 03:01:16;;;;;;;16.48;7.93;;;5.70;99.90;;;;;;5033272;28;20049;-87
2022/01/14 03:03:45;;;;;;;14.15;7.25;;;6.10;99.90;;;;;;5033555;28;20052;-87
2022/01/14 03:06:13;;;;;;;12.70;7.00;;;5.90;99.90;;;;;;5033067;28;20053;-87
2022/01/14 03:08:40;;;;;;;12.55;5.65;;;6.00;99.90;;;;;;5016352;28;20057;-86
2022/01/14 03:11:14;;;;;;;15.80;6.63;;;5.80;99.90;;;;;;5023158;28;20037;-86
2022/01/14 03:13:40;;;;;;;12.70;6.00;;;5.80;99.90;;;;;;5035167;28;20494;-88
2022/01/14 03:16:06;;;;;;;11.88;6.18;;;6.50;99.90;;;;;;5018785;28;20037;-88
2022/01/14 03:18:52;;;;;;;12.23;5.60;;;6.60;99.90;;;;;;5053122;28;20079;-87
2022/01/14 03:21:27;;;;;;;11.43;5.40;;;5.70;99.90;;;;;;5051364;28;20041;-88
2022/01/14 03:24:05;;;;;;;13.73;6.90;;;6.10;99.90;;;;;;5052925;28;20055;-87
2022/01/14 03:26:31;;;;;;;16.88;6.75;;;6.30;99.90;;;;;;5052769;28;20045;-89
2022/01/14 03:28:56;;;;;;;12.10;5.57;;;5.90;99.90;;;;;;5053067;28;20397;-88
2022/01/14 03:31:22;;;;;;;10.73;6.13;;;5.80;99.90;;;;;;5037616;28;20053;-87
2022/01/14 03:33:48;;;;;;;13.05;6.00;;;5.80;99.90;;;;;;5033192;28;20087;-88
2022/01/14 03:36:14;;;;;;;10.43;5.05;;;5.90;99.90;;;;;;5015203;28;20060;-88
2022/01/14 03:38:40;;;;;;;24.15;7.88;;;5.90;99.90;;;;;;5014851;28;20060;-87
2022/01/14 03:41:06;;;;;;;15.80;6.97;;;6.50;99.90;;;;;;5015618;28;20049;-87
2022/01/14 03:43:32;;;;;;;19.17;7.47;;;5.90;99.90;;;;;;5033034;28;20056;-87
2022/01/14 03:45:58;;;;;;;9.95;5.47;;;6.70;99.90;;;;;;5047760;28;20036;-88
2022/01/14 03:48:24;;;;;;;16.65;8.02;;;6.10;99.90;;;;;;5035131;28;20397;-87
2022/01/14 03:50:50;;;;;;;13.27;6.63;;;6.10;99.90;;;;;;5052810;28;20041;-87
2022/01/14 03:53:16;;;;;;;9.93;5.18;;;5.90;99.90;;;;;;5050838;28;20044;-88
2022/01/14 03:55:43;;;;;;;15.68;7.63;;;6.20;99.90;;;;;;5049795;28;20045;-88
2022/01/14 03:58:09;;;;;;;12.38;5.70;;;5.90;99.90;;;;;;5032653;28;20124;-89
2022/01/14 04:00:36;;;;;;;8.48;4.65;;;5.90;99.90;;;;;;5015082;28;20043;-88
2022/01/14 04:03:05;;;;;;;11.88;5.78;;;6.30;99.90;;;;;;5033702;28;20052;-87
2022/01/14 04:05:31;;;;;;;12.05;5.60;;;5.90;99.90;;;;;;5051853;28;20049;-88
2022/01/14 04:07:56;;;;;;;10.57;5.70;;;7.40;99.90;;;;;;5052662;28;20490;-88
2022/01/14 04:10:22;;;;;;;11.90;6.28;;;6.30;99.90;;;;;;5052245;28;20498;-87
2022/01/14 04:12:57;;;;;;;13.32;6.60;;;5.90;99.90;;;;;;5050855;28;20056;-88
2022/01/14 04:15:41;;;;;;;9.30;5.75;;;5.90;99.90;;;;;;5052354;28;20071;-84
2022/01/14 04:18:15;;;;;;;16.83;5.95;;;6.40;99.90;;;;;;5052020;28;20083;-88
2022/01/14 04:20:43;;;;;;;13.13;5.60;;;5.80;99.90;;;;;;5051959;28;20067;-82
2022/01/14 04:23:11;;;;;;;11.15;5.45;;;6.10;99.90;;;;;;5050987;28;20041;-83
2022/01/14 04:25:37;;;;;;;10.00;5.28;;;6.10;99.90;;;;;;5052191;28;20037;-84
2022/01/14 04:28:04;;;;;;;9.57;5.03;;;5.70;99.90;;;;;;5052450;28;20397;-82
2022/01/14 04:30:30;;;;;;;14.43;6.13;;;6.70;99.90;;;;;;5050981;28;20527;-87
2022/01/14 04:32:56;;;;;;;10.93;6.57;;;5.70;99.90;;;;;;5051082;28;20112;-83
2022/01/14 04:35:22;;;;;;;20.08;7.47;;;6.40;99.90;;;;;;5033152;28;20053;-87
2022/01/14 04:37:48;;;;;;;13.05;6.03;;;6.10;99.90;;;;;;5039474;28;20393;-87
2022/01/14 04:40:14;;;;;;;9.68;5.18;;;6.20;99.90;;;;;;5034766;28;20045;-87
2022/01/14 04:42:42;;;;;;;8.93;5.28;;;5.60;99.90;;;;;;5052294;28;20047;-86
2022/01/14 04:45:10;;;;;;;11.15;5.63;;;6.00;99.90;;;;;;5050048;28;20037;-87
2022/01/14 04:47:45;;;;;;;11.80;5.93;;;5.60;99.90;;;;;;5052187;28;20041;-87
2022/01/14 04:50:13;;;;;;;12.70;5.38;;;5.60;99.90;;;;;;5052394;28;20041;-87
2022/01/14 04:52:40;;;;;;;10.63;4.60;;;5.60;99.90;;;;;;5056089;28;20128;-87
2022/01/14 04:55:07;;;;;;;16.83;7.75;;;5.80;99.90;;;;;;5054209;28;20555;-85
2022/01/14 04:57:33;;;;;;;19.15;7.50;;;5.60;99.90;;;;;;5055636;28;20109;-85
2022/01/14 04:59:58;;;;;;;10.90;6.28;;;5.60;99.90;;;;;;5045059;28;20073;-87
2022/01/14 05:02:25;;;;;;;10.50;5.32;;;5.50;99.90;;;;;;5035704;28;20107;-85
2022/01/14 05:04:53;;;;;;;9.32;5.28;;;5.50;99.90;;;;;;5035368;28;20095;-83
2022/01/14 05:07:24;;;;;;;14.20;6.53;;;5.50;99.90;;;;;;5036909;28;20135;-87
2022/01/14 05:12:28;;;;;;;11.52;6.80;;;5.50;99.90;;;;;;5037031;28;20127;-87
2022/01/14 05:14:54;;;;;;;13.23;6.60;;;5.50;99.90;;;;;;5035389;28;20030;-83
2022/01/14 05:17:20;;;;;;;16.13;7.80;;;5.50;99.90;;;;;;5018906;28;20050;-86
2022/01/14 05:19:46;;;;;;;11.07;6.25;;;5.50;99.90;;;;;;5035503;28;20402;-88
2022/01/14 05:22:11;;;;;;;7.70;4.32;;;5.50;99.90;;;;;;5035359;28;20045;-88
2022/01/14 05:24:37;;;;;;;22.27;8.25;;;5.50;99.90;;;;;;5017548;28;20445;-87
2022/01/14 05:27:03;;;;;;;14.98;7.70;;;5.80;99.90;;;;;;5029154;28;20487;-87
2022/01/14 05:29:29;;;;;;;14.73;8.05;;;5.60;99.90;;;;;;5035553;28;20057;-87
2022/01/14 05:32:02;;;;;;;13.68;6.80;;;6.30;99.90;;;;;;5035119;28;20065;-88
2022/01/14 05:34:32;;;;;;;12.18;5.90;;;5.70;99.90;;;;;;5035263;28;20520;-89
2022/01/14 05:36:58;;;;;;;11.48;6.68;;;5.60;99.90;;;;;;5035179;28;20046;-88
2022/01/14 05:39:24;;;;;;;11.48;6.47;;;5.60;99.90;;;;;;5046599;28;20052;-88
2022/01/14 05:41:51;;;;;;;9.25;5.78;;;6.30;99.90;;;;;;5055083;28;20037;-87
2022/01/14 05:44:17;;;;;;;14.68;7.25;;;5.80;99.90;;;;;;5055114;28;20040;-89
2022/01/14 05:46:43;;;;;;;16.00;7.30;;;5.60;99.90;;;;;;5036725;28;20063;-88
2022/01/14 05:49:09;;;;;;;12.05;7.13;;;6.40;99.90;;;;;;5054693;28;20041;-88
2022/01/14 05:51:54;;;;;;;11.05;5.85;;;6.10;99.90;;;;;;5054844;28;20043;-86
2022/01/14 05:54:22;;;;;;;13.57;6.43;;;5.60;99.90;;;;;;5054962;28;20049;-89
2022/01/14 05:56:48;;;;;;;10.13;5.95;;;5.70;99.90;;;;;;5037316;28;20375;-88
2022/01/14 05:59:14;;;;;;;9.65;6.50;;;5.70;99.90;;;;;;5054415;28;20087;-88
2022/01/14 06:01:40;;;;;;;13.25;7.95;;;5.70;99.90;;;;;;5035454;28;20084;-88
2022/01/14 06:04:07;;;;;;;11.13;6.80;;;5.70;99.90;;;;;;5016453;28;20552;-88
2022/01/14 06:06:34;;;;;;;14.43;7.65;;;6.10;99.90;;;;;;5003700;28;20412;-88
2022/01/14 06:09:00;;;;;;;23.20;9.55;;;5.70;99.90;;;;;;5054345;28;20059;-87
2022/01/14 06:11:26;;;;;;;18.83;8.27;;;6.60;99.90;;;;;;5054536;28;20410;-87
2022/01/14 06:13:52;;;;;;;8.38;5.57;;;5.80;99.90;;;;;;5035017;28;20045;-85
2022/01/14 06:16:19;;;;;;;12.73;6.97;;;5.80;99.90;;;;;;5016710;28;20048;-88
2022/01/14 06:18:45;;;;;;;17.02;7.93;;;6.30;99.90;;;;;;5039120;28;20041;-89
2022/01/14 06:21:11;;;;;;;16.27;8.13;;;6.20;99.90;;;;;;5054312;28;20053;-89
2022/01/14 06:23:38;;;;;;;14.73;7.45;;;6.40;99.90;;;;;;5054144;28;20048;-88
2022/01/14 06:26:04;;;;;;;11.70;5.65;;;5.80;99.90;;;;;;5054312;28;20072;-86
2022/01/14 06:28:30;;;;;;;10.80;5.40;;;6.10;99.90;;;;;;5054005;28;20045;-86
2022/01/14 06:30:56;;;;;;;9.63;6.32;;;5.90;99.90;;;;;;5035936;28;20494;-87
2022/01/14 06:33:21;;;;;;;9.32;5.00;;;6.10;99.90;;;;;;5052312;28;20055;-88
2022/01/14 06:35:49;;;;;;;13.43;5.70;;;5.80;99.90;;;;;;5036078;28;20108;-88
2022/01/14 06:38:16;;;;;;;12.90;7.00;;;6.50;99.90;;;;;;5053864;28;20056;-89
2022/01/14 06:40:42;;;;;;;10.52;5.55;;;6.30;99.90;;;;;;5053940;28;20102;-87
2022/01/14 06:43:07;;;;;;;11.00;6.03;;;6.20;99.90;;;;;;5053861;28;20041;-87
2022/01/14 06:45:33;;;;;;;12.30;5.05;;;6.00;99.90;;;;;;5051816;28;20560;-86
2022/01/14 06:47:59;;;;;;;14.60;6.25;;;6.30;99.90;;;;;;5053243;28;20482;-88
2022/01/14 06:50:26;;;;;;;13.77;5.15;;;6.20;99.90;;;;;;5019200;28;20128;-85
2022/01/14 06:52:52;;;;;;;10.60;6.53;;;6.40;99.90;;;;;;5045943;28;20390;-86
2022/01/14 06:55:18;;;;;;;7.07;4.25;;;5.90;99.90;;;;;;5033813;28;20051;-88
2022/01/14 06:57:44;;;;;;;11.10;4.55;;;5.80;99.90;;;;;;5015901;28;20486;-86
2022/01/14 07:00:13;;;;;;;8.98;4.78;;;6.60;99.90;;;;;;5040554;28;20049;-87
2022/01/14 07:02:39;;;;;;;13.27;4.68;;;5.80;99.90;;;;;;5038327;28;20452;-85
2022/01/14 07:05:05;;;;;;;14.38;5.85;;;5.90;99.90;;;;;;5015530;28;20049;-87
2022/01/14 07:07:31;;;;;;;11.85;4.65;;;5.90;99.90;;;;;;5033413;28;20049;-88
2022/01/14 07:09:57;;;;;;;10.55;4.05;;;6.20;99.90;;;;;;5015431;28;20061;-87
2022/01/14 07:12:27;;;;;;;16.75;4.93;;;6.70;99.90;;;;;;5016426;28;20053;-85
2022/01/14 07:14:54;;;;;;;9.90;4.38;;;5.00;99.90;;;;;;5046243;28;20044;-86
2022/01/14 07:17:20;;;;;;;11.52;4.43;;;6.60;99.90;;;;;;5015708;28;20505;-87
2022/01/14 07:19:47;;;;;;;12.00;3.80;;;5.80;99.90;;;;;;5033217;28;20486;-87
2022/01/14 07:22:13;;;;;;;9.90;4.00;;;6.30;99.90;;;;;;5034251;28;20050;-88
2022/01/14 07:24:39;;;;;;;7.40;3.42;;;5.90;99.90;;;;;;5015506;28;20379;-87
2022/01/14 07:27:04;;;;;;;7.18;3.20;;;5.90;99.90;;;;;;5044421;28;20052;-88
2022/01/14 07:29:30;;;;;;;9.57;4.63;;;6.30;99.90;;;;;;5021915;28;20496;-87
2022/01/14 07:31:56;;;;;;;9.35;4.18;;;6.20;99.90;;;;;;5032793;28;20041;-87
2022/01/14 07:34:21;;;;;;;7.35;3.42;;;6.50;99.90;;;;;;5029098;28;20076;-86
2022/01/14 07:36:50;;;;;;;12.15;4.28;;;5.90;99.90;;;;;;5035673;28;20059;-89
2022/01/14 07:39:18;;;;;;;8.98;3.80;;;5.80;99.90;;;;;;5034822;28;20559;-88
2022/01/14 07:41:43;;;;;;;6.03;3.20;;;4.60;99.90;;;;;;5017502;28;20056;-87
2022/01/14 07:44:09;;;;;;;14.43;5.13;;;6.20;99.90;;;;;;5023958;28;20049;-88
2022/01/14 07:46:35;;;;;;;12.70;4.18;;;6.00;99.90;;;;;;5032950;28;20076;-89
2022/01/14 07:49:00;;;;;;;6.45;2.95;;;6.60;99.90;;;;;;5032694;28;20454;-87
2022/01/14 07:51:27;;;;;;;9.07;3.72;;;6.60;99.90;;;;;;5032789;28;20112;-87
2022/01/14 07:53:52;;;;;;;7.80;2.80;;;6.30;99.90;;;;;;5032560;28;20394;-86
2022/01/14 07:56:18;;;;;;;15.88;4.57;;;6.30;99.90;;;;;;5033434;28;20064;-82
2022/01/14 07:58:44;;;;;;;15.10;3.60;;;6.10;99.90;;;;;;5033479;28;20111;-82
2022/01/14 08:01:09;;;;;;;7.47;2.80;;;6.10;99.90;;;;;;5032628;28;20037;-82
2022/01/14 08:03:35;;;;;;;6.32;2.17;;;6.10;99.90;;;;;;5014955;28;20045;-82
2022/01/14 08:06:01;;;;;;;5.05;1.92;;;6.00;99.90;;;;;;5026281;28;20049;-83
2022/01/14 08:08:28;;;;;;;4.72;1.98;;;6.00;99.90;;;;;;5032175;28;20053;-83
2022/01/14 08:10:55;;;;;;;5.68;2.00;;;6.80;99.90;;;;;;5033926;28;20134;-82
2022/01/14 08:13:20;;;;;;;11.82;3.35;;;6.00;99.90;;;;;;5051909;28;20510;-82
2022/01/14 08:15:46;;;;;;;8.90;2.55;;;6.20;99.90;;;;;;5034587;28;20072;-82
2022/01/14 08:18:12;;;;;;;7.20;1.95;;;6.10;99.90;;;;;;5052124;28;20048;-82
2022/01/14 08:20:38;;;;;;;7.10;2.58;;;6.10;99.90;;;;;;5052306;28;20049;-83
2022/01/14 08:23:04;;;;;;;6.85;2.83;;;6.10;99.90;;;;;;5052415;28;20501;-83
2022/01/14 08:25:29;;;;;;;8.45;2.60;;;6.10;99.90;;;;;;5053410;28;20076;-84
2022/01/14 08:27:55;;;;;;;4.40;2.15;;;6.10;99.90;;;;;;5054564;28;20040;-83
2022/01/14 08:30:21;;;;;;;3.65;1.85;;;6.10;99.90;;;;;;5056472;28;20118;-82
2022/01/14 08:32:47;;;;;;;10.48;1.88;;;6.90;99.90;;;;;;5021487;28;20450;-83
2022/01/14 08:35:14;;;;;;;7.32;2.47;;;6.10;99.90;;;;;;5033142;28;20041;-86
2022/01/14 08:37:40;;;;;;;9.50;2.33;;;6.10;99.90;;;;;;5033364;28;20049;-83
2022/01/14 08:40:08;;;;;;;4.72;1.80;;;6.20;99.90;;;;;;5055943;28;20098;-83
2022/01/14 08:42:34;;;;;;;5.18;1.92;;;6.10;99.90;;;;;;5055407;28;20067;-83
2022/01/14 08:45:00;;;;;;;10.15;3.03;;;6.40;99.90;;;;;;5054265;28;20041;-83
2022/01/14 08:47:25;;;;;;;5.72;2.65;;;6.20;99.90;;;;;;5055710;28;20047;-85
2022/01/14 08:49:51;;;;;;;5.30;1.85;;;6.50;99.90;;;;;;5056333;28;20068;-82
2022/01/14 08:52:17;;;;;;;3.80;1.90;;;6.50;99.90;;;;;;5055894;28;20064;-84
2022/01/14 08:54:43;;;;;;;5.90;1.92;;;6.40;99.90;;;;;;5037789;28;20090;-83
2022/01/14 08:57:09;;;;;;;6.53;2.75;;;6.30;99.90;;;;;;5024101;28;20049;-83
2022/01/14 08:59:36;;;;;;;9.82;2.85;;;7.00;99.90;;;;;;5018036;28;20049;-83
2022/01/14 09:02:03;;;;;;;7.45;2.00;;;6.80;99.90;;;;;;5001545;28;20132;-83
2022/01/14 09:04:28;;;;;;;5.55;1.88;;;6.30;99.90;;;;;;5002267;28;20065;-86
2022/01/14 09:07:09;;;;;;;6.82;2.08;;;6.40;99.90;;;;;;5051004;28;20041;-86
2022/01/14 09:13:41;;;;;;;7.85;2.72;;;6.40;99.90;;;;;;5044622;28;20060;-84
2022/01/14 09:16:06;;;;;;;4.20;2.10;;;7.20;99.90;;;;;;5052147;28;20053;-84
2022/01/14 09:18:39;;;;;;;8.80;1.90;;;6.30;99.90;;;;;;5035237;28;20042;-85
2022/01/14 09:21:05;;;;;;;6.45;2.22;;;7.30;99.90;;;;;;5035220;28;20099;-83
2022/01/14 09:23:33;;;;;;;7.15;1.90;;;6.60;99.90;;;;;;5017749;28;20490;-82
2022/01/14 09:25:59;;;;;;;7.88;1.85;;;7.40;99.90;;;;;;5036202;28;20133;-82
2022/01/14 09:28:25;;;;;;;3.67;1.73;;;7.10;99.90;;;;;;5018402;28;20128;-83
2022/01/14 09:30:50;;;;;;;11.63;1.98;;;7.50;99.90;;;;;;5035246;28;20049;-83
2022/01/14 09:33:17;;;;;;;11.55;1.63;;;7.00;99.90;;;;;;5017844;28;20124;-84
2022/01/14 09:35:46;;;;;;;6.63;1.40;;;6.80;99.90;;;;;;5018404;28;20537;-82
2022/01/14 09:38:16;;;;;;;5.60;1.50;;;7.20;99.90;;;;;;5000852;28;20056;-84
2022/01/14 09:40:43;;;;;;;10.45;2.60;;;6.50;99.90;;;;;;5034930;28;20075;-82
2022/01/14 09:43:12;;;;;;;4.07;1.23;;;6.90;99.90;;;;;;5035046;28;20402;-84
2022/01/14 09:45:38;;;;;;;5.25;1.23;;;6.90;99.90;;;;;;5034917;28;20110;-86
2022/01/14 09:48:04;;;;;;;12.63;1.98;;;6.90;99.90;;;;;;5019174;28;20499;-87
2022/01/14 09:50:30;;;;;;;8.88;1.73;;;7.00;99.90;;;;;;5008718;28;20049;-87
2022/01/14 09:52:55;;;;;;;6.72;1.60;;;7.70;99.90;;;;;;5054512;28;20044;-85
2022/01/14 09:55:24;;;;;;;6.70;1.63;;;7.00;99.90;;;;;;5036121;28;20040;-85
2022/01/14 09:57:50;;;;;;;7.65;2.33;;;7.10;99.90;;;;;;5053120;28;20095;-88
2022/01/14 10:00:16;;;;;;;9.43;1.90;;;7.30;99.90;;;;;;5053095;28;20033;-85
2022/01/14 10:02:43;;;;;;;8.57;2.20;;;7.40;99.90;;;;;;5036810;28;20040;-86
2022/01/14 10:05:30;;;;;;;10.13;1.65;;;8.10;99.90;;;;;;5036409;28;20098;-85
2022/01/14 10:08:23;;;;;;;7.55;1.45;;;8.90;99.90;;;;;;5052573;28;20045;-85
2022/01/14 10:11:01;;;;;;;10.00;1.52;;;7.70;99.90;;;;;;5035639;28;20521;-85
2022/01/14 10:13:32;;;;;;;8.50;1.30;;;8.00;99.90;;;;;;5016682;28;20132;-85
2022/01/14 10:16:09;;;;;;;7.93;1.30;;;7.70;99.90;;;;;;5034267;28;20482;-85
2022/01/14 10:18:38;;;;;;;8.60;1.67;;;7.30;99.90;;;;;;5017715;28;20132;-85
2022/01/14 10:21:06;;;;;;;8.20;1.42;;;7.80;99.90;;;;;;5035745;28;20072;-85
2022/01/14 10:23:44;;;;;;;4.38;1.10;;;7.70;99.90;;;;;;5042265;28;20048;-85
2022/01/14 10:26:14;;;;;;;5.10;1.27;;;7.50;99.90;;;;;;5035605;28;20049;-85
2022/01/14 10:28:44;;;;;;;8.07;1.55;;;7.40;99.90;;;;;;5052217;28;20521;-86
2022/01/14 10:31:10;;;;;;;9.38;1.90;;;7.50;99.90;;;;;;5014120;28;20104;-84
2022/01/14 10:33:36;;;;;;;4.80;2.33;;;7.60;99.90;;;;;;5034310;28;20490;-88
2022/01/14 10:36:03;;;;;;;7.25;1.70;;;7.80;99.90;;;;;;5033756;28;20055;-84
2022/01/14 10:38:38;;;;;;;9.30;1.90;;;7.50;99.90;;;;;;5024981;28;20059;-86
2022/01/14 10:41:08;;;;;;;5.45;1.10;;;7.10;99.90;;;;;;5033527;28;20417;-85
2022/01/14 10:43:36;;;;;;;6.47;1.33;;;7.70;99.90;;;;;;5034023;28;20055;-88
2022/01/14 10:46:07;;;;;;;4.90;0.90;;;8.30;99.90;;;;;;5030747;28;20124;-86
2022/01/14 10:48:36;;;;;;;9.48;1.38;;;7.50;99.90;;;;;;5035737;28;20052;-90
2022/01/14 10:51:10;;;;;;;6.65;1.25;;;7.60;99.90;;;;;;5035911;28;20132;-85
2022/01/14 10:53:48;;;;;;;5.47;1.73;;;8.10;99.90;;;;;;5051795;28;20097;-85
2022/01/14 10:56:18;;;;;;;9.82;1.52;;;8.40;99.90;;;;;;5053329;28;20044;-84
2022/01/14 10:58:50;;;;;;;3.72;1.02;;;7.50;99.90;;;;;;5052483;28;20056;-85
2022/01/14 11:01:22;;;;;;;13.07;1.65;;;7.80;99.90;;;;;;5035779;28;20398;-85
2022/01/14 11:03:59;;;;;;;6.90;1.15;;;8.20;99.90;;;;;;5024577;28;20421;-85
2022/01/14 11:06:33;;;;;;;7.85;1.20;;;8.00;99.90;;;;;;4999523;28;20037;-82
2022/01/14 11:09:18;;;;;;;12.90;2.28;;;7.70;99.90;;;;;;5015509;28;20056;-83
2022/01/14 11:11:49;;;;;;;10.68;1.85;;;7.80;99.90;;;;;;5033248;28;20072;-82
2022/01/14 11:14:15;;;;;;;6.38;1.10;;;7.80;99.90;;;;;;5034301;28;20050;-82
2022/01/14 11:16:41;;;;;;;7.80;1.00;;;8.50;99.90;;;;;;5046990;28;20060;-83
2022/01/14 11:19:09;;;;;;;8.63;1.85;;;8.20;99.90;;;;;;5053069;28;20116;-83
2022/01/14 11:24:23;;;;;;;7.20;1.60;;;8.70;99.90;;;;;;5032646;28;20466;-85
2022/01/14 11:26:51;;;;;;;10.82;1.40;;;8.40;99.90;;;;;;5052929;28;20398;-83
2022/01/14 11:29:20;;;;;;;9.15;2.00;;;8.50;99.90;;;;;;5034480;28;20056;-86
2022/01/14 11:31:59;;;;;;;10.23;2.35;;;7.90;99.90;;;;;;5052364;28;20560;-85
2022/01/14 11:34:32;;;;;;;10.35;1.63;;;7.90;99.90;;;;;;5034335;28;20041;-83
2022/01/14 11:37:01;;;;;;;7.80;1.45;;;8.00;99.90;;;;;;5014973;28;20072;-84
2022/01/14 11:39:34;;;;;;;9.70;1.40;;;7.90;99.90;;;;;;5049358;28;20056;-85
2022/01/14 11:42:04;;;;;;;11.20;1.30;;;7.90;99.90;;;;;;5035484;28;20569;-85
2022/01/14 11:44:55;;;;;;;8.75;1.45;;;7.90;99.90;;;;;;5052754;28;20040;-85
2022/01/14 11:47:24;;;;;;;9.95;1.67;;;7.70;99.90;;;;;;5033318;28;20057;-86
2022/01/14 11:49:53;;;;;;;8.85;2.05;;;7.90;99.90;;;;;;5046079;28;20055;-84
2022/01/14 11:52:38;;;;;;;11.05;1.40;;;8.00;99.90;;;;;;5017614;28;20040;-86
2022/01/14 11:55:25;;;;;;;11.35;1.58;;;8.30;99.90;;;;;;5020809;28;20041;-84
2022/01/14 11:57:56;;;;;;;13.70;1.85;;;8.00;99.90;;;;;;5015882;28;20053;-85
2022/01/14 12:00:41;;;;;;;5.82;1.35;;;8.00;99.90;;;;;;5032241;28;20081;-86
2022/01/14 12:03:06;;;;;;;8.23;1.40;;;8.20;99.90;;;;;;5032708;28;20037;-84
2022/01/14 12:05:37;;;;;;;5.07;1.50;;;8.20;99.90;;;;;;5032359;28;20056;-85
2022/01/14 12:08:07;;;;;;;4.75;1.33;;;8.60;99.90;;;;;;5038535;28;20145;-84
2022/01/14 12:10:43;;;;;;;10.50;1.20;;;8.50;99.90;;;;;;5051249;28;20503;-82
2022/01/14 12:16:05;;;;;;;6.55;1.33;;;8.00;99.90;;;;;;5032393;28;20065;-81
2022/01/14 12:18:49;;;;;;;2.92;1.48;;;8.00;99.90;;;;;;5033650;28;20046;-84
2022/01/14 12:21:16;;;;;;;9.93;1.50;;;7.90;99.90;;;;;;5026624;28;20053;-84
2022/01/14 12:23:43;;;;;;;13.20;1.77;;;8.00;99.90;;;;;;5051658;28;20044;-82
2022/01/14 12:26:15;;;;;;;11.93;2.42;;;8.10;99.90;;;;;;5034310;28;20091;-81
2022/01/14 12:28:42;;;;;;;8.00;2.13;;;8.30;99.90;;;;;;5017398;28;20143;-82
2022/01/14 12:31:08;;;;;;;5.65;1.00;;;8.60;99.90;;;;;;5032259;28;20038;-82
2022/01/14 12:33:50;;;;;;;9.43;1.25;;;8.50;99.90;;;;;;5014547;28;20041;-83
2022/01/14 12:36:19;;;;;;;11.55;1.65;;;8.10;99.90;;;;;;5032060;28;20041;-81
2022/01/14 12:38:46;;;;;;;6.22;1.40;;;8.10;99.90;;;;;;5015659;28;20045;-84
2022/01/14 12:41:14;;;;;;;6.38;1.00;;;8.30;99.90;;;;;;5014364;28;20051;-84
2022/01/14 12:43:51;;;;;;;14.23;2.25;;;8.00;99.90;;;;;;5014542;28;20506;-85
2022/01/14 12:46:51;;;;;;;10.43;1.95;;;8.00;99.90;;;;;;5041798;28;20412;-86
2022/01/14 12:49:32;;;;;;;7.75;1.88;;;8.70;99.90;;;;;;5052191;28;20045;-85
2022/01/14 12:52:01;;;;;;;10.70;1.88;;;8.00;99.90;;;;;;5052840;28;20055;-84
2022/01/14 12:54:34;;;;;;;7.30;1.63;;;8.00;99.90;;;;;;5051408;28;20053;-85
2022/01/14 12:57:01;;;;;;;9.57;1.65;;;7.80;99.90;;;;;;5051863;28;20132;-85
2022/01/14 12:59:27;;;;;;;7.65;1.73;;;7.80;99.90;;;;;;5051959;28;20049;-85
2022/01/14 13:01:55;;;;;;;3.95;0.98;;;8.00;99.90;;;;;;5046798;28;20477;-85
2022/01/14 13:04:23;;;;;;;7.43;1.25;;;8.00;99.90;;;;;;5031197;28;20032;-85
2022/01/14 13:06:56;;;;;;;8.95;1.88;;;8.70;99.90;;;;;;5051678;28;20041;-84
2022/01/14 13:09:34;;;;;;;7.30;1.55;;;8.20;99.90;;;;;;5051331;28;20041;-84
2022/01/14 13:12:05;;;;;;;5.53;1.13;;;8.10;99.90;;;;;;5033235;28;20052;-84
2022/01/14 13:14:44;;;;;;;7.53;1.65;;;8.10;99.90;;;;;;5035122;28;20093;-85
2022/01/14 13:17:16;;;;;;;9.25;1.73;;;8.20;99.90;;;;;;5035213;28;20128;-85
2022/01/14 13:19:43;;;;;;;7.07;1.23;;;8.50;99.90;;;;;;5035387;28;20038;-84
2022/01/14 13:22:15;;;;;;;12.25;1.58;;;8.30;99.90;;;;;;5035395;28;20099;-84
2022/01/14 13:24:52;;;;;;;9.60;1.48;;;8.10;99.90;;;;;;5021243;28;20076;-84
2022/01/14 13:27:26;;;;;;;7.57;1.42;;;8.90;99.90;;;;;;5017482;28;20437;-83
2022/01/14 13:29:55;;;;;;;11.50;1.90;;;8.10;99.90;;;;;;5018631;28;20052;-81
2022/01/14 13:32:30;;;;;;;9.48;2.40;;;8.20;99.90;;;;;;5055028;28;20092;-83